createdAt,value
2023-04-06T00:03:11.275Z,4.12
2023-04-06T00:08:14.005Z,4.16
2023-04-06T00:13:15.035Z,4.02
2023-04-06T00:18:13.632Z,4.02
2023-04-06T00:23:15.950Z,4.05
2023-04-06T00:28:17.817Z,4.04
2023-04-06T00:33:16.897Z,4.03
2023-04-06T00:38:19.223Z,4.00
2023-04-06T00:43:21.163Z,4.03
2023-04-06T00:48:21.907Z,3.93
2023-04-06T00:53:22.863Z,3.91
2023-04-06T00:58:22.967Z,3.78
2023-04-06T01:03:27.805Z,4.15
2023-04-06T01:08:28.174Z,4.20
2023-04-06T01:13:43.354Z,4.15
2023-04-06T01:18:51.914Z,4.30
2023-04-06T01:23:57.534Z,4.36
2023-04-06T01:29:04.549Z,4.45
2023-04-06T01:34:05.058Z,4.37
2023-04-06T01:39:08.020Z,4.49
2023-04-06T01:44:10.602Z,4.43
2023-04-06T01:49:10.452Z,4.73
2023-04-06T01:54:12.609Z,4.59
2023-04-06T01:59:30.371Z,4.60
2023-04-06T02:04:32.560Z,4.64
2023-04-06T02:09:41.084Z,4.48
2023-04-06T02:14:46.390Z,4.56
2023-04-06T02:19:45.464Z,4.47
2023-04-06T02:24:44.245Z,4.65
2023-04-06T02:29:43.986Z,4.71
2023-04-06T02:34:42.921Z,4.62
2023-04-06T02:39:43.549Z,4.79
2023-04-06T02:44:43.799Z,4.69
2023-04-06T02:49:43.643Z,4.89
2023-04-06T02:54:42.366Z,4.92
2023-04-06T02:59:41.761Z,4.83
2023-04-06T03:04:47.699Z,4.94
2023-04-06T03:09:54.863Z,4.95
2023-04-06T03:14:53.667Z,5.05
2023-04-06T03:19:53.003Z,4.85
2023-04-06T03:24:52.977Z,4.86
2023-04-06T03:29:51.735Z,4.88
2023-04-06T03:34:57.918Z,4.90
2023-04-06T03:39:58.835Z,4.89
2023-04-06T03:44:57.108Z,4.78
2023-04-06T03:49:55.197Z,4.77
2023-04-06T03:54:53.892Z,4.88
2023-04-06T03:59:53.978Z,4.79
2023-04-06T04:04:53.161Z,4.93
2023-04-06T04:09:51.564Z,4.85
2023-04-06T04:14:51.332Z,4.81
2023-04-06T04:19:51.122Z,4.90
2023-04-06T04:24:49.719Z,4.75
2023-04-06T04:29:48.773Z,4.95
2023-04-06T04:34:48.776Z,4.94
2023-04-06T04:39:59.341Z,4.95
2023-04-06T04:45:01.562Z,4.80
2023-04-06T04:50:10.673Z,5.20
2023-04-06T04:55:15.418Z,5.20
2023-04-06T05:00:21.631Z,5.14
2023-04-06T05:05:21.841Z,5.27
2023-04-06T05:10:22.659Z,5.29
2023-04-06T05:15:26.147Z,5.27
2023-04-06T05:20:29.692Z,5.64
2023-04-06T05:25:28.565Z,5.63
2023-04-06T05:30:31.877Z,5.54
2023-04-06T05:35:31.861Z,5.69
2023-04-06T05:40:36.890Z,5.80
2023-04-06T05:45:36.220Z,5.88
2023-04-06T05:50:36.744Z,5.75
2023-04-06T05:55:38.719Z,5.74
2023-04-06T06:00:48.645Z,5.85
2023-04-06T06:05:49.505Z,5.68
2023-04-06T06:10:56.402Z,5.81
2023-04-06T06:15:59.847Z,5.87
2023-04-06T06:20:59.663Z,5.71
2023-04-06T06:25:59.576Z,5.80
2023-04-06T06:30:59.841Z,5.90
2023-04-06T06:35:58.626Z,6.06
2023-04-06T06:40:58.384Z,6.07
2023-04-06T06:46:01.699Z,6.05
2023-04-06T06:51:00.638Z,6.07
2023-04-06T06:55:58.527Z,6.06
2023-04-06T07:01:01.170Z,6.34
2023-04-06T07:06:03.052Z,6.42
2023-04-06T07:11:01.735Z,6.70
2023-04-06T07:15:59.716Z,7.01
2023-04-06T07:20:59.442Z,6.79
2023-04-06T07:25:58.484Z,6.94
2023-04-06T07:30:57.378Z,7.19
2023-04-06T07:35:59.844Z,7.12
2023-04-06T07:41:01.435Z,7.52
2023-04-06T07:46:01.712Z,7.36
2023-04-06T07:51:06.148Z,7.34
2023-04-06T07:56:13.624Z,7.39
2023-04-06T08:01:12.367Z,7.57
2023-04-06T08:06:10.806Z,7.58
2023-04-06T08:11:10.154Z,7.66
2023-04-06T08:16:08.917Z,7.96
2023-04-06T08:21:10.849Z,7.95
2023-04-06T08:26:08.943Z,8.09
2023-04-06T08:31:10.635Z,8.22
2023-04-06T08:36:11.162Z,8.11
2023-04-06T08:41:11.149Z,8.12
2023-04-06T08:46:10.214Z,8.40
2023-04-06T08:51:08.696Z,8.33
2023-04-06T08:56:07.738Z,8.12
2023-04-06T09:01:11.717Z,8.28
2023-04-06T09:06:13.237Z,8.23
2023-04-06T09:11:12.291Z,8.68
2023-04-06T09:16:10.071Z,8.85
2023-04-06T09:21:09.447Z,8.49
2023-04-06T09:26:08.471Z,8.70
2023-04-06T09:31:07.572Z,8.74
2023-04-06T09:36:10.789Z,8.66
2023-04-06T09:41:09.186Z,8.60
2023-04-06T09:46:11.561Z,8.71
2023-04-06T09:51:14.168Z,8.93
2023-04-06T09:56:16.947Z,8.83
2023-04-06T10:01:18.145Z,9.13
2023-04-06T10:06:17.021Z,9.08
2023-04-06T10:11:15.951Z,9.43
2023-04-06T10:16:16.024Z,9.17
2023-04-06T10:21:18.502Z,9.28
2023-04-06T10:26:22.758Z,9.60
2023-04-06T10:31:29.119Z,9.52
2023-04-06T10:36:29.463Z,9.56
2023-04-06T10:41:35.447Z,9.25
2023-04-06T10:46:34.495Z,9.58
2023-04-06T10:51:34.019Z,9.69
2023-04-06T10:56:33.034Z,9.64
2023-04-06T11:01:32.230Z,9.68
2023-04-06T11:06:32.318Z,9.76
2023-04-06T11:11:30.995Z,9.84
2023-04-06T11:16:30.966Z,10.08
2023-04-06T11:21:44.534Z,9.98
2023-04-06T11:26:49.995Z,10.05
2023-04-06T11:31:53.132Z,9.85
2023-04-06T11:36:56.307Z,10.08
2023-04-06T11:42:06.123Z,10.24
2023-04-06T11:47:07.973Z,9.91
2023-04-06T11:52:20.284Z,10.23
2023-04-06T11:57:19.801Z,10.48
2023-04-06T12:02:19.004Z,10.82
2023-04-06T12:07:16.830Z,11.30
2023-04-06T12:12:16.545Z,10.81
2023-04-06T12:17:15.073Z,11.26
2023-04-06T12:22:14.986Z,10.88
2023-04-06T12:27:13.746Z,11.25
2023-04-06T12:32:13.219Z,11.41
2023-04-06T12:37:12.552Z,11.55
2023-04-06T12:42:11.970Z,11.70
2023-04-06T12:47:12.519Z,11.80
2023-04-06T12:52:10.621Z,11.47
2023-04-06T12:57:10.719Z,11.65
2023-04-06T13:02:10.001Z,11.65
2023-04-06T13:07:11.221Z,11.87
2023-04-06T13:12:12.273Z,11.47
2023-04-06T13:17:11.003Z,11.65
2023-04-06T13:22:09.803Z,12.02
2023-04-06T13:27:08.603Z,12.49
2023-04-06T13:32:06.865Z,12.83
2023-04-06T13:37:06.059Z,12.82
2023-04-06T13:42:06.609Z,14.07
2023-04-06T13:47:04.788Z,14.95
2023-04-06T13:52:05.265Z,14.24
2023-04-06T13:57:08.597Z,12.78
2023-04-06T14:02:09.698Z,12.11
2023-04-06T14:07:08.602Z,11.97
2023-04-06T14:12:07.563Z,11.97
2023-04-06T14:17:06.840Z,12.19
2023-04-06T14:22:09.925Z,12.17
2023-04-06T14:27:15.143Z,12.16
2023-04-06T14:32:18.888Z,12.13
2023-04-06T14:37:19.337Z,12.24
2023-04-06T14:42:17.852Z,12.27
2023-04-06T14:47:21.350Z,12.39
2023-04-06T14:52:22.844Z,12.56
2023-04-06T14:57:21.090Z,12.29
2023-04-06T15:02:21.817Z,12.12
2023-04-06T15:07:24.308Z,12.07
2023-04-06T15:12:23.010Z,11.85
2023-04-06T15:17:21.883Z,11.69
2023-04-06T15:22:21.091Z,11.70
2023-04-06T15:27:22.097Z,11.46
2023-04-06T15:32:23.913Z,11.65
2023-04-06T15:37:22.709Z,11.63
2023-04-06T15:42:20.502Z,11.17
2023-04-06T15:47:21.398Z,11.17
2023-04-06T15:52:22.575Z,11.21
2023-04-06T15:57:21.309Z,11.00
2023-04-06T16:02:22.436Z,10.92
2023-04-06T16:07:21.404Z,10.79
2023-04-06T16:12:23.687Z,10.76
2023-04-06T16:17:28.839Z,10.62
2023-04-06T16:22:30.368Z,10.93
2023-04-06T16:27:31.105Z,10.80
2023-04-06T16:32:29.334Z,10.41
2023-04-06T16:37:31.626Z,10.48
2023-04-06T16:42:33.638Z,10.38
2023-04-06T16:47:34.260Z,9.96
2023-04-06T16:52:37.299Z,9.90
2023-04-06T16:57:39.178Z,10.00
2023-04-06T17:02:45.204Z,9.82
2023-04-06T17:07:46.269Z,9.80
2023-04-06T17:12:46.666Z,9.64
2023-04-06T17:17:54.597Z,9.72
2023-04-06T17:22:52.794Z,9.40
2023-04-06T17:27:51.993Z,9.26
2023-04-06T17:32:52.077Z,9.17
2023-04-06T17:37:53.015Z,8.80
2023-04-06T17:42:53.414Z,8.95
2023-04-06T17:47:52.091Z,8.90
2023-04-06T17:52:54.148Z,8.85
2023-04-06T17:57:52.848Z,9.00
2023-04-06T18:02:54.829Z,8.87
2023-04-06T18:07:58.458Z,8.44
2023-04-06T18:13:01.486Z,8.57
2023-04-06T18:18:06.938Z,8.73
2023-04-06T18:23:05.794Z,8.59
2023-04-06T18:28:08.905Z,8.39
2023-04-06T18:33:22.965Z,8.45
2023-04-06T18:38:43.737Z,8.25
2023-04-06T18:43:47.274Z,8.36
2023-04-06T18:48:46.662Z,8.19
2023-04-06T18:53:55.891Z,8.27
2023-04-06T18:58:57.373Z,8.16
2023-04-06T19:04:01.232Z,8.06
2023-04-06T19:09:04.089Z,8.05
2023-04-06T19:14:04.844Z,8.04
2023-04-06T19:19:03.263Z,7.75
2023-04-06T19:24:08.981Z,7.92
2023-04-06T19:29:10.970Z,7.85
2023-04-06T19:34:09.975Z,7.63
2023-04-06T19:39:09.614Z,7.61
2023-04-06T19:44:24.971Z,7.50
2023-04-06T19:49:23.373Z,7.23
2023-04-06T19:54:22.255Z,7.21
2023-04-06T19:59:24.616Z,7.08
2023-04-06T20:04:28.034Z,7.07
2023-04-06T20:09:28.961Z,7.38
2023-04-06T20:14:30.707Z,7.11
2023-04-06T20:19:29.152Z,7.27
2023-04-06T20:24:31.536Z,7.25
2023-04-06T20:29:36.228Z,7.44
2023-04-06T20:34:39.341Z,7.16
2023-04-06T20:39:42.976Z,7.14
2023-04-06T20:44:45.409Z,7.47
2023-04-06T20:49:45.072Z,7.39
2023-04-06T20:54:44.261Z,7.40
2023-04-06T20:59:42.501Z,7.37
2023-04-06T21:04:49.206Z,7.20
2023-04-06T21:09:49.754Z,7.40
2023-04-06T21:14:49.767Z,7.20
2023-04-06T21:19:52.449Z,7.32
2023-04-06T21:24:52.853Z,7.29
2023-04-06T21:29:52.812Z,7.28
2023-04-06T21:34:54.420Z,7.11
2023-04-06T21:39:53.430Z,7.03
2023-04-06T21:44:53.009Z,7.13
2023-04-06T21:49:55.179Z,7.33
2023-04-06T21:54:54.060Z,7.09
2023-04-06T21:59:55.494Z,7.36
2023-04-06T22:04:55.706Z,7.20
2023-04-06T22:09:55.702Z,7.31
2023-04-06T22:14:53.476Z,7.30
2023-04-06T22:19:52.991Z,7.20
2023-04-06T22:24:53.985Z,7.30
2023-04-06T22:29:55.117Z,7.27
2023-04-06T22:34:54.032Z,7.20
2023-04-06T22:39:52.862Z,7.24
2023-04-06T22:44:57.680Z,7.03
2023-04-06T22:49:57.001Z,7.08
2023-04-06T22:54:55.333Z,6.80
2023-04-06T22:59:58.095Z,6.88
2023-04-06T23:04:56.962Z,6.81
2023-04-06T23:09:58.995Z,6.72
2023-04-06T23:14:58.823Z,6.91
2023-04-06T23:19:58.230Z,6.76
2023-04-06T23:24:58.237Z,6.58
2023-04-06T23:30:01.103Z,6.60
2023-04-06T23:34:59.960Z,6.71
2023-04-06T23:39:59.223Z,6.64
2023-04-06T23:44:57.619Z,6.58
2023-04-06T23:49:56.610Z,6.63
2023-04-06T23:54:56.043Z,6.43
2023-04-06T23:59:55.907Z,6.58
